createdAt,value
2023-01-19T00:02:15.081Z,94950.88
2023-01-19T00:04:50.338Z,94946.46
2023-01-19T00:07:20.478Z,94946.01
2023-01-19T00:10:00.739Z,94948.94
2023-01-19T00:12:47.821Z,94940.59
2023-01-19T00:15:19.368Z,94948.11
2023-01-19T00:17:48.440Z,94947.89
2023-01-19T00:20:27.563Z,94946.28
2023-01-19T00:23:36.253Z,94945.77
2023-01-19T00:26:04.491Z,94945.11
2023-01-19T00:28:52.262Z,94960.42
2023-01-19T00:31:49.683Z,94955.38
2023-01-19T00:34:17.040Z,94949.55
2023-01-19T00:37:10.650Z,94949.98
2023-01-19T00:39:47.430Z,94949.27
2023-01-19T00:42:34.099Z,94952.63
2023-01-19T00:45:01.766Z,94959.52
2023-01-19T00:47:31.476Z,94954.21
2023-01-19T00:50:19.484Z,94948.56
2023-01-19T00:53:09.929Z,94951.34
2023-01-19T00:55:50.727Z,94932.95
2023-01-19T00:58:19.418Z,94928.48
2023-01-19T01:01:05.910Z,94938.48
2023-01-19T01:03:55.237Z,94927.61
2023-01-19T01:06:30.311Z,94922.95
2023-01-19T01:08:57.625Z,94913.40
2023-01-19T01:11:29.089Z,94911.11
2023-01-19T01:13:56.785Z,94906.84
2023-01-19T01:16:24.523Z,94905.39
2023-01-19T01:18:57.100Z,94893.66
2023-01-19T01:21:46.483Z,94899.16
2023-01-19T01:24:18.472Z,94889.52
2023-01-19T01:27:06.882Z,94888.45
2023-01-19T01:29:40.766Z,94892.54
2023-01-19T01:32:11.541Z,94882.08
2023-01-19T01:34:49.921Z,94880.48
2023-01-19T01:37:58.014Z,94871.59
2023-01-19T01:40:33.482Z,94872.55
2023-01-19T01:43:27.985Z,94865.23
2023-01-19T01:46:15.820Z,94870.89
2023-01-19T01:48:52.986Z,94869.20
2023-01-19T01:51:29.795Z,94864.44
2023-01-19T01:54:19.670Z,94878.64
2023-01-19T01:56:52.660Z,94884.35
2023-01-19T01:59:29.103Z,94879.78
2023-01-19T02:02:20.169Z,94872.02
2023-01-19T02:04:49.167Z,94866.77
2023-01-19T02:07:49.333Z,94859.70
2023-01-19T02:10:29.476Z,94839.13
2023-01-19T02:13:20.484Z,94839.84
2023-01-19T02:16:09.868Z,94848.02
2023-01-19T02:18:48.383Z,94838.17
2023-01-19T02:21:31.185Z,94835.19
2023-01-19T02:24:02.262Z,94838.59
2023-01-19T02:26:35.129Z,94843.55
2023-01-19T02:29:07.755Z,94845.48
2023-01-19T02:31:38.635Z,94847.55
2023-01-19T02:34:26.040Z,94853.87
2023-01-19T02:37:06.657Z,94851.69
2023-01-19T02:39:45.786Z,94858.49
2023-01-19T02:42:22.022Z,94857.04
2023-01-19T02:44:55.203Z,94859.39
2023-01-19T02:47:42.666Z,94858.64
2023-01-19T02:50:41.279Z,94855.63
2023-01-19T02:53:43.846Z,94836.54
2023-01-19T02:56:48.914Z,94841.03
2023-01-19T03:00:03.465Z,94831.51
2023-01-19T03:03:08.673Z,94825.98
2023-01-19T03:06:03.521Z,94830.84
2023-01-19T03:08:57.096Z,94833.35
2023-01-19T03:12:18.750Z,94827.91
2023-01-19T03:14:57.705Z,94822.15
2023-01-19T03:17:48.825Z,94825.94
2023-01-19T03:20:25.739Z,94827.98
2023-01-19T03:23:03.203Z,94834.63
2023-01-19T03:25:40.222Z,94838.39
2023-01-19T03:28:43.125Z,94831.77
2023-01-19T03:31:37.063Z,94829.85
2023-01-19T03:34:09.624Z,94835.16
2023-01-19T03:37:04.152Z,94835.04
2023-01-19T03:39:38.222Z,94838.02
2023-01-19T03:42:10.163Z,94845.77
2023-01-19T03:44:40.296Z,94850.27
2023-01-19T03:47:27.969Z,94851.59
2023-01-19T03:49:57.885Z,94860.29
2023-01-19T03:52:53.325Z,94855.80
2023-01-19T03:55:48.285Z,94857.55
2023-01-19T03:58:42.256Z,94852.05
2023-01-19T04:01:09.919Z,94855.56
2023-01-19T04:03:37.594Z,94847.30
2023-01-19T04:06:10.246Z,94848.84
2023-01-19T04:08:58.431Z,94842.39
2023-01-19T04:11:39.593Z,94829.55
2023-01-19T04:14:16.247Z,94830.50
2023-01-19T04:16:44.553Z,94827.95
2023-01-19T04:19:23.453Z,94828.54
2023-01-19T04:21:56.211Z,94830.41
2023-01-19T04:24:30.844Z,94829.91
2023-01-19T04:27:03.454Z,94829.81
2023-01-19T04:29:32.655Z,94837.33
2023-01-19T04:32:13.765Z,94840.49
2023-01-19T04:35:01.656Z,94842.41
2023-01-19T04:37:30.167Z,94828.70
2023-01-19T04:40:03.883Z,94825.06
2023-01-19T04:42:51.310Z,94836.34
2023-01-19T04:45:18.946Z,94849.90
2023-01-19T04:48:10.750Z,94867.18
2023-01-19T04:50:41.191Z,94869.98
2023-01-19T04:53:15.819Z,94873.52
2023-01-19T04:55:49.293Z,94878.48
2023-01-19T04:58:18.209Z,94881.33
2023-01-19T05:00:56.035Z,94885.05
2023-01-19T05:03:26.826Z,94885.70
2023-01-19T05:05:59.031Z,94885.46
2023-01-19T05:08:26.692Z,94882.13
2023-01-19T05:10:54.056Z,94880.50
2023-01-19T05:13:21.606Z,94882.54
2023-01-19T05:15:55.559Z,94886.30
2023-01-19T05:18:22.338Z,94894.58
2023-01-19T05:21:08.995Z,94915.36
2023-01-19T05:23:36.185Z,94930.50
2023-01-19T05:26:07.649Z,94934.25
2023-01-19T05:28:39.497Z,94941.38
2023-01-19T05:31:08.188Z,94942.32
2023-01-19T05:33:38.881Z,94948.76
2023-01-19T05:36:27.265Z,94955.75
2023-01-19T05:38:56.024Z,94956.61
2023-01-19T05:41:38.710Z,94959.19
2023-01-19T05:44:15.558Z,94961.36
2023-01-19T05:46:56.331Z,94961.65
2023-01-19T05:49:25.011Z,94958.73
2023-01-19T05:52:48.374Z,94954.59
2023-01-19T05:55:16.189Z,94950.52
2023-01-19T05:57:43.461Z,94950.64
2023-01-19T06:00:10.815Z,94945.30
2023-01-19T06:02:37.294Z,94943.14
2023-01-19T06:05:04.146Z,94939.91
2023-01-19T06:07:31.277Z,94941.28
2023-01-19T06:09:58.228Z,94939.24
2023-01-19T06:12:24.665Z,94941.76
2023-01-19T06:14:51.321Z,94935.69
2023-01-19T06:17:18.443Z,94933.09
2023-01-19T06:19:47.691Z,94936.64
2023-01-19T06:22:14.503Z,94930.77
2023-01-19T06:24:41.768Z,94924.27
2023-01-19T06:27:08.460Z,94927.63
2023-01-19T06:29:36.043Z,94936.15
2023-01-19T06:32:02.628Z,94938.66
2023-01-19T06:34:29.298Z,94951.20
2023-01-19T06:36:56.165Z,94950.85
2023-01-19T06:39:23.162Z,94934.02
2023-01-19T06:41:50.192Z,94918.85
2023-01-19T06:44:17.304Z,94924.02
2023-01-19T06:46:43.881Z,94934.95
2023-01-19T06:49:10.523Z,94931.27
2023-01-19T06:51:37.388Z,94922.33
2023-01-19T06:54:04.577Z,94925.13
2023-01-19T06:56:31.150Z,94929.80
2023-01-19T06:58:57.819Z,94919.81
2023-01-19T07:01:24.791Z,94919.38
2023-01-19T07:03:51.527Z,94928.37
2023-01-19T07:06:18.715Z,94925.36
2023-01-19T07:08:45.552Z,94919.06
2023-01-19T07:11:25.800Z,94920.73
2023-01-19T07:13:58.422Z,94908.02
2023-01-19T07:16:27.769Z,94915.11
2023-01-19T07:18:54.804Z,94908.46
2023-01-19T07:21:23.278Z,94891.77
2023-01-19T07:23:54.716Z,94901.07
2023-01-19T07:26:24.482Z,94910.39
2023-01-19T07:28:55.175Z,94926.35
2023-01-19T07:31:31.198Z,94930.87
2023-01-19T07:34:11.722Z,94926.41
2023-01-19T07:36:42.529Z,94919.31
2023-01-19T07:39:23.140Z,94918.50
2023-01-19T07:43:20.272Z,94921.27
2023-01-19T07:53:29.708Z,94923.89
2023-01-19T07:57:08.458Z,94938.83
2023-01-19T08:04:41.628Z,94947.73
2023-01-19T08:07:15.906Z,94955.92
2023-01-19T08:09:43.533Z,94949.45
2023-01-19T08:12:15.455Z,94943.09
2023-01-19T08:14:43.899Z,94936.98
2023-01-19T08:17:17.288Z,94935.72
2023-01-19T08:20:10.711Z,94931.76
2023-01-19T08:22:50.105Z,94928.10
2023-01-19T08:25:31.252Z,94938.02
2023-01-19T08:28:02.709Z,94940.84
2023-01-19T08:30:29.780Z,94932.05
2023-01-19T08:33:10.044Z,94930.00
2023-01-19T08:36:13.975Z,94924.70
2023-01-19T08:40:18.399Z,94925.87
2023-01-19T08:43:39.067Z,94925.90
2023-01-19T08:46:12.640Z,94926.48
2023-01-19T08:48:40.331Z,94926.11
2023-01-19T08:51:17.346Z,94928.54
2023-01-19T08:53:55.300Z,94926.21
2023-01-19T08:56:28.559Z,94923.58
2023-01-19T09:02:00.065Z,94922.23
2023-01-19T09:04:29.133Z,94916.49
2023-01-19T09:06:56.061Z,94915.85
2023-01-19T09:09:25.021Z,94911.24
2023-01-19T09:11:55.210Z,94920.80
2023-01-19T09:14:24.967Z,94928.14
2023-01-19T09:16:53.351Z,94918.36
2023-01-19T09:19:30.487Z,94919.21
2023-01-19T09:22:14.281Z,94912.65
2023-01-19T09:24:56.073Z,94903.98
2023-01-19T09:27:25.518Z,94904.69
2023-01-19T09:30:17.575Z,94914.48
2023-01-19T09:32:51.303Z,94920.38
2023-01-19T09:35:18.836Z,94917.77
2023-01-19T09:37:51.651Z,94912.66
2023-01-19T09:40:22.505Z,94916.43
2023-01-19T09:43:01.506Z,94921.18
2023-01-19T09:45:51.914Z,94926.77
2023-01-19T09:48:49.652Z,94931.69
2023-01-19T09:51:26.809Z,94931.78
2023-01-19T09:54:04.547Z,94916.14
2023-01-19T09:56:34.039Z,94902.20
2023-01-19T09:59:38.574Z,94901.91
2023-01-19T10:02:44.181Z,94897.05
2023-01-19T10:05:41.349Z,94888.64
2023-01-19T10:08:34.819Z,94895.13
2023-01-19T10:11:19.579Z,94891.59
2023-01-19T10:13:52.238Z,94899.34
2023-01-19T10:16:48.275Z,94909.85
2023-01-19T10:19:43.726Z,94909.61
2023-01-19T10:22:26.212Z,94905.37
2023-01-19T10:24:59.569Z,94900.73
2023-01-19T10:27:29.638Z,94897.40
2023-01-19T10:29:58.305Z,94893.99
2023-01-19T10:32:29.738Z,94887.17
2023-01-19T10:35:00.343Z,94880.41
2023-01-19T10:37:32.211Z,94881.04
2023-01-19T10:40:21.985Z,94878.57
2023-01-19T10:42:48.661Z,94878.78
2023-01-19T10:45:25.460Z,94882.14
2023-01-19T10:47:53.997Z,94882.83
2023-01-19T10:50:34.717Z,94886.96
2023-01-19T10:53:06.197Z,94890.64
2023-01-19T10:55:38.385Z,94891.38
2023-01-19T10:58:25.096Z,94891.88
2023-01-19T11:00:58.722Z,94895.27
2023-01-19T11:03:31.869Z,94901.12
2023-01-19T11:06:21.460Z,94900.39
2023-01-19T11:08:51.311Z,94894.98
2023-01-19T11:11:22.720Z,94899.96
2023-01-19T11:14:29.188Z,94897.92
2023-01-19T11:17:00.203Z,94894.27
2023-01-19T11:19:33.689Z,94894.23
2023-01-19T11:22:38.696Z,94898.14
2023-01-19T11:25:21.339Z,94894.84
2023-01-19T11:27:52.495Z,94899.42
2023-01-19T11:30:24.083Z,94901.46
2023-01-19T11:32:51.757Z,94907.52
2023-01-19T11:35:39.428Z,94890.77
2023-01-19T11:38:24.939Z,94892.41
2023-01-19T11:40:56.482Z,94892.29
2023-01-19T11:43:36.622Z,94888.58
2023-01-19T11:46:16.294Z,94890.07
2023-01-19T11:48:56.437Z,94889.14
2023-01-19T11:51:27.330Z,94892.38
2023-01-19T11:53:55.752Z,94893.34
2023-01-19T11:56:28.493Z,94894.27
2023-01-19T11:58:58.413Z,94895.33
2023-01-19T12:01:32.563Z,94896.86
2023-01-19T12:04:31.198Z,94901.06
2023-01-19T12:07:07.851Z,94912.54
2023-01-19T12:09:49.097Z,94904.38
2023-01-19T12:12:30.639Z,94915.38
2023-01-19T12:15:07.668Z,94920.08
2023-01-19T12:17:52.954Z,94924.85
2023-01-19T12:20:35.989Z,94922.02
2023-01-19T12:23:21.336Z,94925.74
2023-01-19T12:26:30.228Z,94917.16
2023-01-19T12:29:25.613Z,94921.83
2023-01-19T12:32:31.508Z,94934.16
2023-01-19T12:35:11.386Z,94936.54
2023-01-19T12:38:36.708Z,94947.30
2023-01-19T12:41:27.781Z,94950.55
2023-01-19T12:44:19.929Z,94947.50
2023-01-19T12:47:08.522Z,94951.87
2023-01-19T12:49:45.231Z,94958.95
2023-01-19T12:52:23.795Z,94967.06
2023-01-19T12:55:20.460Z,94961.64
2023-01-19T12:58:23.514Z,94969.81
2023-01-19T13:01:30.597Z,94975.79
2023-01-19T13:11:12.736Z,94998.91
2023-01-19T13:15:33.570Z,94977.27
2023-01-19T13:22:11.348Z,94955.73
2023-01-19T13:24:53.676Z,94967.48
2023-01-19T13:27:49.985Z,94971.55
2023-01-19T13:31:35.773Z,94978.21
2023-01-19T13:38:28.563Z,94969.35
2023-01-19T13:41:41.867Z,94966.00
2023-01-19T14:24:41.968Z,95011.79
2023-01-19T14:28:21.529Z,95025.14
2023-01-19T14:31:25.411Z,95024.50
2023-01-19T14:34:01.112Z,95033.72
2023-01-19T14:36:46.109Z,95033.63
2023-01-19T14:39:36.206Z,95027.98
2023-01-19T14:42:57.838Z,95030.28
2023-01-19T14:49:55.281Z,95038.91
2023-01-19T14:52:35.196Z,95026.20
2023-01-19T14:55:24.137Z,95027.19
2023-01-19T14:58:19.159Z,95029.23
2023-01-19T15:04:07.908Z,95018.57
2023-01-19T15:26:52.090Z,95048.66
2023-01-19T15:29:32.250Z,95050.19
2023-01-19T15:32:25.852Z,95064.63
2023-01-19T15:35:59.711Z,95060.20
2023-01-19T15:39:28.464Z,95070.09
2023-01-19T15:42:41.693Z,95083.90
2023-01-19T15:50:14.446Z,95100.28
2023-01-19T15:54:06.392Z,95115.84
2023-01-19T15:58:05.154Z,95124.24
2023-01-19T16:05:41.957Z,95133.60
2023-01-19T16:19:56.371Z,95167.76
2023-01-19T17:01:52.225Z,95146.45
2023-01-19T17:18:18.532Z,95200.31
2023-01-19T17:25:44.308Z,95201.88
2023-01-19T17:29:15.356Z,95198.90
2023-01-19T17:33:12.631Z,95212.30
2023-01-19T17:37:12.177Z,95213.08
2023-01-19T17:40:51.398Z,95216.70
2023-01-19T17:44:23.670Z,95230.38
2023-01-19T17:47:54.247Z,95235.40
2023-01-19T17:55:41.383Z,95243.70
2023-01-19T17:59:27.196Z,95256.05
2023-01-19T18:03:11.326Z,95251.10
2023-01-19T18:06:45.374Z,95254.56
2023-01-19T18:10:14.564Z,95258.75
2023-01-19T18:13:28.234Z,95260.96
2023-01-19T18:16:51.294Z,95267.36
2023-01-19T18:19:57.320Z,95275.78
2023-01-19T18:22:25.485Z,95281.77
2023-01-19T18:25:13.264Z,95288.39
2023-01-19T18:27:41.409Z,95286.48
2023-01-19T18:30:09.841Z,95285.90
2023-01-19T18:33:09.523Z,95291.72
2023-01-19T18:35:39.243Z,95297.86
2023-01-19T18:38:28.398Z,95306.50
2023-01-19T18:41:12.450Z,95316.13
2023-01-19T18:43:40.746Z,95322.71
2023-01-19T18:46:09.522Z,95324.11
2023-01-19T18:48:38.316Z,95333.30
2023-01-19T18:51:09.021Z,95335.75
2023-01-19T18:53:38.513Z,95338.20
2023-01-19T18:56:30.813Z,95332.42
2023-01-19T18:59:14.016Z,95337.03
2023-01-19T19:01:42.296Z,95328.35
2023-01-19T19:04:12.946Z,95318.58
2023-01-19T19:06:40.830Z,95321.45
2023-01-19T19:09:14.029Z,95328.40
2023-01-19T19:11:43.582Z,95325.73
2023-01-19T19:14:33.961Z,95324.80
2023-01-19T19:17:03.416Z,95322.52
2023-01-19T19:19:31.744Z,95313.63
2023-01-19T19:22:16.593Z,95298.14
2023-01-19T19:24:51.740Z,95290.57
2023-01-19T19:27:20.224Z,95292.19
2023-01-19T19:29:49.083Z,95295.14
2023-01-19T19:32:21.899Z,95298.45
2023-01-19T19:35:24.410Z,95302.30
2023-01-19T19:37:58.032Z,95306.25
2023-01-19T19:40:45.502Z,95315.41
2023-01-19T19:43:23.115Z,95314.62
2023-01-19T19:46:05.283Z,95314.11
2023-01-19T19:48:34.394Z,95320.60
2023-01-19T19:51:27.082Z,95326.17
2023-01-19T19:54:10.536Z,95327.45
2023-01-19T19:57:21.930Z,95321.33
2023-01-19T20:00:48.244Z,95320.30
2023-01-19T20:03:34.288Z,95330.42
2023-01-19T20:08:13.234Z,95326.24
2023-01-19T20:10:17.263Z,95322.46
2023-01-19T20:13:39.955Z,95326.50
2023-01-19T20:20:13.635Z,95322.21
2023-01-19T20:23:31.385Z,95320.73
2023-01-19T20:26:34.544Z,95328.61
2023-01-19T20:33:19.089Z,95334.59
2023-01-19T20:36:24.579Z,95340.61
2023-01-19T20:44:07.429Z,95355.02
2023-01-19T20:47:40.940Z,95364.23
2023-01-19T20:50:47.402Z,95369.36
2023-01-19T20:54:32.909Z,95374.10
2023-01-19T20:57:45.131Z,95372.77
2023-01-19T21:01:01.407Z,95381.18
2023-01-19T21:04:30.339Z,95384.22
2023-01-19T21:07:56.678Z,95383.58
2023-01-19T21:11:29.635Z,95386.22
2023-01-19T21:14:36.784Z,95381.40
2023-01-19T21:17:32.500Z,95373.65
2023-01-19T21:20:58.164Z,95376.31
2023-01-19T21:24:20.008Z,95375.84
2023-01-19T21:27:17.371Z,95381.11
2023-01-19T21:29:45.302Z,95386.54
2023-01-19T21:32:13.251Z,95383.16
2023-01-19T21:34:44.259Z,95381.30
2023-01-19T21:37:12.086Z,95396.25
2023-01-19T21:39:39.946Z,95412.58
2023-01-19T21:42:07.823Z,95413.36
2023-01-19T21:44:35.739Z,95410.29
2023-01-19T21:47:08.945Z,95401.19
2023-01-19T21:49:36.953Z,95400.21
2023-01-19T21:52:05.069Z,95405.14
2023-01-19T21:54:33.224Z,95403.19
2023-01-19T21:57:03.242Z,95405.47
2023-01-19T21:59:31.150Z,95406.86
2023-01-19T22:01:59.205Z,95413.85
2023-01-19T22:04:28.367Z,95420.01
2023-01-19T22:06:56.434Z,95417.27
2023-01-19T22:09:24.379Z,95407.30
2023-01-19T22:11:52.183Z,95400.52
2023-01-19T22:14:19.947Z,95392.85
2023-01-19T22:16:47.854Z,95387.89
2023-01-19T22:19:15.696Z,95390.73
2023-01-19T22:21:43.531Z,95389.46
2023-01-19T22:24:12.924Z,95393.38
2023-01-19T22:26:40.746Z,95394.45
2023-01-19T22:29:11.134Z,95391.52
2023-01-19T22:31:39.838Z,95387.77
2023-01-19T22:34:10.285Z,95385.59
2023-01-19T22:36:38.431Z,95381.02
2023-01-19T22:39:09.188Z,95379.11
2023-01-19T22:41:41.261Z,95381.46
2023-01-19T22:44:13.904Z,95383.52
2023-01-19T22:46:42.367Z,95375.69
2023-01-19T22:49:13.251Z,95373.77
2023-01-19T22:51:41.450Z,95369.70
2023-01-19T22:54:10.474Z,95356.79
2023-01-19T22:56:39.391Z,95346.69
2023-01-19T22:59:07.793Z,95350.10
2023-01-19T23:01:41.225Z,95354.08
2023-01-19T23:04:13.106Z,95361.74
2023-01-19T23:06:42.579Z,95369.65
2023-01-19T23:09:13.655Z,95375.27
2023-01-19T23:11:44.176Z,95377.66
2023-01-19T23:14:15.686Z,95382.20
2023-01-19T23:16:43.551Z,95385.68
2023-01-19T23:19:12.413Z,95384.08
2023-01-19T23:21:41.041Z,95387.84
2023-01-19T23:24:09.214Z,95386.84
2023-01-19T23:26:38.439Z,95378.41
2023-01-19T23:29:11.269Z,95374.54
2023-01-19T23:31:42.651Z,95377.27
2023-01-19T23:34:12.418Z,95375.39
2023-01-19T23:36:42.459Z,95369.34
2023-01-19T23:39:18.023Z,95358.69
2023-01-19T23:41:46.897Z,95354.98
2023-01-19T23:44:15.574Z,95362.91
2023-01-19T23:46:44.008Z,95367.76
2023-01-19T23:49:12.749Z,95375.07
2023-01-19T23:51:41.303Z,95372.56
2023-01-19T23:54:09.405Z,95370.79
2023-01-19T23:56:38.703Z,95369.86
2023-01-19T23:59:10.043Z,95370.08
